createdAt,value
2018-06-28T00:02:18.438Z,22.10
2018-06-28T00:04:50.694Z,22.00
2018-06-28T00:07:22.185Z,22.00
2018-06-28T00:14:55.916Z,21.90
2018-06-28T00:17:27.997Z,21.80
2018-06-28T00:19:59.628Z,21.80
2018-06-28T00:22:31.573Z,21.80
2018-06-28T00:25:03.574Z,21.80
2018-06-28T00:27:35.166Z,21.70
2018-06-28T00:30:07.497Z,21.70
2018-06-28T00:32:38.997Z,21.70
2018-06-28T00:35:10.449Z,21.60
2018-06-28T00:37:42.386Z,21.60
2018-06-28T00:40:14.324Z,21.50
2018-06-28T00:42:45.785Z,21.50
2018-06-28T00:45:17.350Z,21.50
2018-06-28T00:47:48.875Z,21.50
2018-06-28T00:50:20.423Z,21.40
2018-06-28T00:52:52.104Z,21.40
2018-06-28T00:55:23.812Z,21.40
2018-06-28T00:57:55.826Z,21.30
2018-06-28T01:00:28.403Z,21.30
2018-06-28T01:03:00.307Z,21.20
2018-06-28T01:05:32.691Z,21.20
2018-06-28T01:08:04.449Z,21.20
2018-06-28T01:10:36.266Z,21.10
2018-06-28T01:13:08.262Z,21.10
2018-06-28T01:15:40.719Z,21.10
2018-06-28T01:18:12.301Z,21.10
2018-06-28T01:20:44.103Z,21.00
2018-06-28T01:23:16.259Z,21.00
2018-06-28T01:25:48.135Z,21.00
2018-06-28T01:28:19.691Z,20.90
2018-06-28T01:30:53.117Z,20.90
2018-06-28T01:33:24.969Z,20.90
2018-06-28T01:35:56.741Z,20.90
2018-06-28T01:38:28.603Z,20.90
2018-06-28T01:41:00.387Z,20.90
2018-06-28T01:43:48.347Z,20.80
2018-06-28T01:46:19.989Z,20.80
2018-06-28T01:48:51.490Z,20.80
2018-06-28T01:51:22.973Z,20.80
2018-06-28T01:53:54.434Z,20.70
2018-06-28T01:56:26.205Z,20.70
2018-06-28T01:58:57.824Z,20.70
2018-06-28T02:01:29.877Z,20.60
2018-06-28T02:04:02.047Z,20.60
2018-06-28T02:06:33.729Z,20.60
2018-06-28T02:09:10.180Z,20.60
2018-06-28T02:11:42.040Z,20.50
2018-06-28T02:14:13.877Z,20.50
2018-06-28T02:16:45.535Z,20.50
2018-06-28T02:19:17.733Z,20.40
2018-06-28T02:21:49.511Z,20.40
2018-06-28T02:24:21.034Z,20.40
2018-06-28T02:26:52.583Z,20.30
2018-06-28T02:29:24.057Z,20.30
2018-06-28T02:31:56.084Z,20.30
2018-06-28T02:34:27.846Z,20.20
2018-06-28T02:36:59.759Z,20.20
2018-06-28T02:39:31.138Z,20.20
2018-06-28T02:42:02.636Z,20.20
2018-06-28T02:44:34.302Z,20.20
2018-06-28T02:47:06.177Z,20.10
2018-06-28T02:49:38.165Z,20.10
2018-06-28T02:52:09.823Z,20.10
2018-06-28T02:54:41.352Z,20.10
2018-06-28T02:57:12.837Z,20.00
2018-06-28T02:59:44.521Z,20.00
2018-06-28T03:02:16.247Z,20.00
2018-06-28T03:04:48.063Z,19.90
2018-06-28T03:09:50.505Z,19.90
2018-06-28T03:12:21.973Z,19.80
2018-06-28T03:14:53.818Z,19.80
2018-06-28T03:17:25.361Z,19.80
2018-06-28T03:19:56.891Z,19.80
2018-06-28T03:22:28.365Z,20.20
2018-06-28T03:25:00.295Z,19.70
2018-06-28T03:27:32.144Z,19.70
2018-06-28T03:30:03.781Z,19.70
2018-06-28T03:32:35.239Z,19.70
2018-06-28T03:35:07.025Z,19.70
2018-06-28T03:37:39.040Z,19.60
2018-06-28T03:40:11.196Z,19.60
2018-06-28T03:42:42.670Z,19.60
2018-06-28T03:45:14.147Z,19.60
2018-06-28T03:47:45.594Z,19.50
2018-06-28T03:50:17.127Z,19.50
2018-06-28T03:52:48.791Z,19.50
2018-06-28T03:55:20.653Z,19.40
2018-06-28T03:57:52.101Z,19.40
2018-06-28T04:00:23.701Z,19.40
2018-06-28T04:02:55.190Z,19.40
2018-06-28T04:05:26.668Z,19.30
2018-06-28T04:07:58.211Z,19.40
2018-06-28T04:10:29.729Z,19.30
2018-06-28T04:13:01.220Z,19.30
2018-06-28T04:15:32.715Z,19.30
2018-06-28T04:18:05.046Z,19.30
2018-06-28T04:20:36.463Z,19.30
2018-06-28T04:23:08.261Z,19.30
2018-06-28T04:25:40.301Z,19.30
2018-06-28T04:28:12.017Z,19.30
2018-06-28T04:30:43.613Z,19.30
2018-06-28T04:33:15.268Z,19.30
2018-06-28T04:35:47.018Z,19.30
2018-06-28T04:38:18.946Z,19.40
2018-06-28T04:43:22.009Z,19.40
2018-06-28T04:45:53.630Z,19.40
2018-06-28T04:48:25.096Z,19.40
2018-06-28T04:50:56.682Z,19.40
2018-06-28T04:53:28.153Z,19.40
2018-06-28T04:55:59.957Z,19.40
2018-06-28T04:58:31.485Z,19.50
2018-06-28T05:01:03.095Z,19.50
2018-06-28T05:03:34.633Z,19.50
2018-06-28T05:06:06.462Z,19.50
2018-06-28T05:08:37.923Z,19.50
2018-06-28T05:11:09.867Z,19.60
2018-06-28T05:13:41.377Z,19.60
2018-06-28T05:16:12.917Z,19.60
2018-06-28T05:18:44.428Z,19.70
2018-06-28T05:21:16.240Z,19.70
2018-06-28T05:23:47.864Z,19.80
2018-06-28T05:26:19.973Z,19.80
2018-06-28T05:28:52.483Z,19.80
2018-06-28T05:31:24.938Z,19.90
2018-06-28T05:33:57.801Z,19.90
2018-06-28T05:36:29.517Z,20.00
2018-06-28T05:41:32.017Z,20.10
2018-06-28T05:46:35.263Z,20.20
2018-06-28T05:49:06.790Z,20.30
2018-06-28T05:54:09.589Z,20.40
2018-06-28T05:56:41.439Z,20.50
2018-06-28T05:59:13.119Z,20.50
2018-06-28T06:01:44.770Z,20.60
2018-06-28T06:04:17.917Z,20.70
2018-06-28T06:06:49.915Z,20.70
2018-06-28T06:09:21.432Z,20.80
2018-06-28T06:11:52.912Z,20.90
2018-06-28T06:14:24.506Z,21.00
2018-06-28T06:19:27.221Z,21.10
2018-06-28T06:21:59.276Z,21.20
2018-06-28T06:24:31.219Z,21.30
2018-06-28T06:27:02.783Z,21.40
2018-06-28T06:29:34.434Z,21.40
2018-06-28T06:32:06.027Z,21.50
2018-06-28T06:34:38.732Z,21.60
2018-06-28T06:37:10.874Z,21.70
2018-06-28T06:39:42.406Z,21.70
2018-06-28T06:42:14.346Z,21.90
2018-06-28T06:44:45.922Z,21.90
2018-06-28T06:47:17.509Z,22.00
2018-06-28T06:49:49.092Z,22.10
2018-06-28T06:52:21.242Z,22.20
2018-06-28T06:54:53.231Z,22.30
2018-06-28T06:57:24.856Z,22.30
2018-06-28T07:02:27.642Z,22.50
2018-06-28T07:04:59.292Z,22.60
2018-06-28T07:12:33.410Z,22.90
2018-06-28T07:15:05.769Z,23.00
2018-06-28T07:17:37.415Z,23.00
2018-06-28T07:20:09.064Z,23.10
2018-06-28T07:22:40.720Z,23.10
2018-06-28T07:25:12.539Z,23.20
2018-06-28T07:27:44.409Z,23.30
2018-06-28T07:30:16.091Z,23.40
2018-06-28T07:35:18.974Z,23.50
2018-06-28T07:37:50.716Z,23.60
2018-06-28T07:40:22.303Z,23.70
2018-06-28T07:42:53.893Z,23.70
2018-06-28T07:45:25.584Z,23.90
2018-06-28T07:47:57.063Z,24.00
2018-06-28T07:50:51.663Z,24.10
2018-06-28T07:53:23.746Z,24.20
2018-06-28T07:55:55.677Z,24.30
2018-06-28T07:58:27.637Z,24.40
2018-06-28T08:03:30.400Z,24.60
2018-06-28T08:06:02.236Z,24.70
2018-06-28T08:08:33.807Z,24.70
2018-06-28T08:11:05.976Z,24.80
2018-06-28T08:16:08.976Z,25.00
2018-06-28T08:18:40.749Z,25.10
2018-06-28T08:21:12.566Z,25.10
2018-06-28T08:23:44.128Z,25.20
2018-06-28T08:26:15.902Z,25.30
2018-06-28T08:28:47.349Z,25.40
2018-06-28T08:31:20.457Z,25.50
2018-06-28T08:33:51.939Z,25.50
2018-06-28T08:36:23.846Z,25.60
2018-06-28T08:38:55.466Z,25.70
2018-06-28T08:41:27.429Z,25.80
2018-06-28T08:43:59.273Z,25.90
2018-06-28T08:46:31.222Z,25.90
2018-06-28T08:49:03.170Z,26.00
2018-06-28T08:51:35.401Z,26.10
2018-06-28T08:54:07.182Z,26.10
2018-06-28T08:56:38.722Z,26.10
2018-06-28T08:59:10.610Z,26.20
2018-06-28T09:01:42.199Z,26.30
2018-06-28T09:04:13.831Z,26.40
2018-06-28T09:06:45.464Z,26.50
2018-06-28T09:09:17.460Z,26.60
2018-06-28T09:11:48.946Z,26.60
2018-06-28T09:14:20.528Z,26.70
2018-06-28T09:16:52.668Z,26.80
2018-06-28T09:19:24.190Z,26.90
2018-06-28T09:21:55.797Z,27.00
2018-06-28T09:24:28.331Z,27.00
2018-06-28T09:26:59.889Z,27.10
2018-06-28T09:29:31.733Z,27.20
2018-06-28T09:32:03.708Z,27.20
2018-06-28T09:34:35.308Z,27.30
2018-06-28T09:37:07.442Z,27.40
2018-06-28T09:39:39.148Z,27.50
2018-06-28T09:42:10.865Z,27.60
2018-06-28T09:47:13.785Z,27.80
2018-06-28T09:52:16.349Z,28.10
2018-06-28T09:54:47.977Z,28.20
2018-06-28T09:57:19.784Z,28.20
2018-06-28T09:59:52.159Z,28.30
2018-06-28T10:02:24.406Z,28.50
2018-06-28T10:04:56.512Z,28.60
2018-06-28T10:07:28.267Z,28.70
2018-06-28T10:10:00.474Z,28.80
2018-06-28T10:12:32.516Z,28.90
2018-06-28T10:15:04.293Z,29.00
2018-06-28T10:17:36.668Z,29.10
2018-06-28T10:25:12.722Z,29.50
2018-06-28T10:27:45.234Z,29.70
2018-06-28T10:30:17.632Z,29.90
2018-06-28T10:32:50.317Z,30.20
2018-06-28T10:35:22.637Z,30.00
2018-06-28T10:37:54.851Z,30.80
2018-06-28T10:40:27.300Z,31.20
2018-06-28T10:42:59.415Z,31.60
2018-06-28T10:45:32.379Z,32.00
2018-06-28T10:48:05.633Z,32.40
2018-06-28T10:50:38.110Z,32.80
2018-06-28T10:53:10.377Z,33.20
2018-06-28T10:55:42.827Z,33.60
2018-06-28T10:58:14.855Z,33.90
2018-06-28T11:00:47.293Z,34.30
2018-06-28T11:03:19.398Z,34.50
2018-06-28T11:05:51.525Z,34.70
2018-06-28T11:08:24.532Z,34.90
2018-06-28T11:10:56.919Z,35.10
2018-06-28T11:13:29.272Z,35.20
2018-06-28T11:16:01.364Z,35.30
2018-06-28T11:18:33.633Z,35.40
2018-06-28T11:21:06.029Z,35.60
2018-06-28T11:23:38.211Z,35.80
2018-06-28T11:26:10.217Z,36.10
2018-06-28T11:28:42.553Z,36.40
2018-06-28T11:31:14.914Z,36.70
2018-06-28T11:33:47.155Z,36.90
2018-06-28T11:36:19.701Z,37.20
2018-06-28T11:38:52.010Z,37.50
2018-06-28T11:41:24.321Z,37.60
2018-06-28T11:46:27.996Z,37.60
2018-06-28T11:49:00.462Z,37.70
2018-06-28T11:51:33.206Z,37.90
2018-06-28T11:54:05.811Z,38.10
2018-06-28T11:59:09.375Z,38.60
2018-06-28T12:01:41.981Z,38.70
2018-06-28T12:04:14.482Z,38.90
2018-06-28T12:06:46.852Z,39.00
2018-06-28T12:09:18.982Z,39.20
2018-06-28T12:11:51.458Z,39.40
2018-06-28T12:14:23.509Z,39.60
2018-06-28T12:17:02.755Z,39.90
2018-06-28T12:19:35.266Z,40.10
2018-06-28T12:22:07.861Z,40.30
2018-06-28T12:24:40.138Z,40.50
2018-06-28T12:27:12.575Z,40.70
2018-06-28T12:29:44.785Z,40.80
2018-06-28T12:32:16.918Z,40.90
2018-06-28T12:34:49.072Z,41.00
2018-06-28T12:39:52.710Z,41.20
2018-06-28T12:42:24.878Z,41.20
2018-06-28T12:48:00.898Z,41.40
2018-06-28T12:50:33.104Z,41.60
2018-06-28T12:53:07.937Z,41.70
2018-06-28T12:56:45.007Z,41.70
2018-06-28T12:59:19.402Z,41.70
2018-06-28T13:01:52.050Z,41.70
2018-06-28T13:04:23.906Z,41.70
2018-06-28T13:06:56.615Z,41.80
2018-06-28T13:09:28.904Z,41.60
2018-06-28T13:12:02.675Z,41.30
2018-06-28T13:14:35.048Z,41.00
2018-06-28T13:17:07.293Z,40.80
2018-06-28T13:19:39.637Z,40.60
2018-06-28T13:22:12.076Z,40.50
2018-06-28T13:24:44.547Z,40.50
2018-06-28T13:27:17.361Z,40.60
2018-06-28T13:29:49.535Z,40.60
2018-06-28T13:32:21.709Z,40.70
2018-06-28T13:34:53.800Z,40.90
2018-06-28T13:37:25.634Z,41.10
2018-06-28T13:39:57.445Z,41.20
2018-06-28T13:42:29.300Z,41.30
2018-06-28T13:45:01.472Z,41.40
2018-06-28T13:47:33.429Z,41.60
2018-06-28T13:50:06.540Z,41.70
2018-06-28T13:52:38.417Z,41.90
2018-06-28T13:55:11.998Z,42.00
2018-06-28T13:57:44.204Z,41.90
2018-06-28T14:02:48.148Z,41.40
2018-06-28T14:05:20.186Z,41.10
2018-06-28T14:07:52.499Z,40.70
2018-06-28T14:10:24.819Z,40.30
2018-06-28T14:12:57.413Z,39.70
2018-06-28T14:18:03.126Z,38.70
2018-06-28T14:23:07.596Z,37.80
2018-06-28T14:25:39.905Z,37.40
2018-06-28T14:28:12.201Z,37.00
2018-06-28T14:30:44.763Z,36.70
2018-06-28T14:33:17.715Z,36.30
2018-06-28T14:35:49.888Z,35.90
2018-06-28T14:38:22.212Z,35.60
2018-06-28T14:40:54.471Z,35.30
2018-06-28T14:43:26.517Z,35.00
2018-06-28T14:45:58.943Z,34.90
2018-06-28T14:48:31.401Z,34.70
2018-06-28T14:51:03.422Z,34.60
2018-06-28T14:53:35.634Z,34.40
2018-06-28T14:56:07.952Z,34.30
2018-06-28T14:58:40.429Z,34.20
2018-06-28T15:01:12.744Z,34.10
2018-06-28T15:03:44.970Z,34.00
2018-06-28T15:06:17.403Z,34.00
2018-06-28T15:08:49.746Z,33.90
2018-06-28T15:11:22.242Z,33.90
2018-06-28T15:13:54.829Z,33.80
2018-06-28T15:16:27.501Z,33.80
2018-06-28T15:18:59.606Z,33.80
2018-06-28T15:21:31.737Z,33.80
2018-06-28T15:24:04.649Z,34.00
2018-06-28T15:26:36.821Z,34.10
2018-06-28T15:29:08.971Z,34.30
2018-06-28T15:31:41.345Z,34.50
2018-06-28T15:34:13.646Z,34.80
2018-06-28T15:36:46.322Z,35.10
2018-06-28T15:39:18.609Z,35.30
2018-06-28T15:41:50.766Z,35.50
2018-06-28T15:44:22.822Z,35.90
2018-06-28T15:46:55.499Z,36.20
2018-06-28T15:49:27.599Z,36.50
2018-06-28T15:51:59.980Z,36.80
2018-06-28T15:54:32.797Z,37.00
2018-06-28T15:57:05.369Z,37.20
2018-06-28T15:59:37.757Z,37.20
2018-06-28T16:02:10.434Z,37.10
2018-06-28T16:04:42.577Z,36.90
2018-06-28T16:07:14.792Z,36.60
2018-06-28T16:09:47.317Z,36.40
2018-06-28T16:12:19.573Z,36.20
2018-06-28T16:14:51.677Z,35.90
2018-06-28T16:17:23.789Z,35.80
2018-06-28T16:19:55.967Z,35.50
2018-06-28T16:22:28.255Z,35.30
2018-06-28T16:25:00.978Z,35.10
2018-06-28T16:27:33.172Z,34.80
2018-06-28T16:30:06.648Z,34.60
2018-06-28T16:32:38.917Z,34.40
2018-06-28T16:35:11.030Z,34.10
2018-06-28T16:37:43.106Z,33.90
2018-06-28T16:40:15.231Z,33.80
2018-06-28T16:42:47.286Z,33.60
2018-06-28T16:45:19.411Z,33.30
2018-06-28T16:47:52.251Z,33.20
2018-06-28T16:50:24.538Z,33.10
2018-06-28T16:52:56.669Z,32.90
2018-06-28T16:55:29.606Z,32.80
2018-06-28T16:58:01.774Z,32.60
2018-06-28T17:03:05.639Z,32.30
2018-06-28T17:05:37.679Z,32.20
2018-06-28T17:08:09.849Z,32.00
2018-06-28T17:10:42.818Z,31.90
2018-06-28T17:13:15.071Z,31.80
2018-06-28T17:15:47.401Z,31.70
2018-06-28T17:18:19.639Z,31.50
2018-06-28T17:20:51.830Z,31.40
2018-06-28T17:23:24.121Z,31.40
2018-06-28T17:25:56.434Z,31.30
2018-06-28T17:28:28.572Z,31.20
2018-06-28T17:31:01.188Z,31.10
2018-06-28T17:36:05.258Z,31.00
2018-06-28T17:38:37.516Z,30.90
2018-06-28T17:41:09.967Z,30.80
2018-06-28T17:43:41.995Z,30.80
2018-06-28T17:46:14.672Z,30.70
2018-06-28T17:48:47.133Z,30.60
2018-06-28T17:51:18.777Z,30.50
2018-06-28T17:53:50.602Z,30.40
2018-06-28T17:56:23.155Z,30.40
2018-06-28T17:58:55.150Z,30.30
2018-06-28T18:01:27.535Z,30.30
2018-06-28T18:03:59.692Z,30.30
2018-06-28T18:06:31.252Z,30.20
2018-06-28T18:09:05.043Z,30.20
2018-06-28T18:11:37.220Z,30.20
2018-06-28T18:14:09.405Z,30.10
2018-06-28T18:16:41.241Z,30.10
2018-06-28T18:19:12.880Z,30.10
2018-06-28T18:21:44.528Z,30.10
2018-06-28T18:24:16.227Z,30.00
2018-06-28T18:26:48.246Z,29.90
2018-06-28T18:29:19.737Z,29.90
2018-06-28T18:31:51.747Z,29.90
2018-06-28T18:34:23.655Z,29.80
2018-06-28T18:36:55.774Z,29.70
2018-06-28T18:39:28.753Z,29.70
2018-06-28T18:42:00.656Z,29.60
2018-06-28T18:47:03.255Z,29.50
2018-06-28T18:49:35.795Z,29.50
2018-06-28T18:52:07.866Z,29.50
2018-06-28T18:54:39.591Z,29.40
2018-06-28T18:59:42.423Z,29.30
2018-06-28T19:02:14.253Z,29.20
2018-06-28T19:04:46.085Z,29.20
2018-06-28T19:07:18.242Z,29.10
2018-06-28T19:09:55.018Z,29.10
2018-06-28T19:12:26.581Z,29.00
2018-06-28T19:15:03.545Z,29.00
2018-06-28T19:17:35.163Z,28.90
2018-06-28T19:20:07.233Z,28.90
2018-06-28T19:22:44.264Z,28.80
2018-06-28T19:25:16.151Z,28.80
2018-06-28T19:27:48.308Z,28.70
2018-06-28T19:32:57.454Z,28.60
2018-06-28T19:35:30.221Z,28.50
2018-06-28T19:40:38.875Z,28.50
2018-06-28T19:43:10.906Z,28.40
2018-06-28T19:45:42.893Z,28.40
2018-06-28T19:48:14.710Z,28.30
2018-06-28T19:51:51.568Z,28.20
2018-06-28T19:54:23.401Z,28.20
2018-06-28T19:56:55.217Z,28.10
2018-06-28T19:59:26.918Z,28.00
2018-06-28T20:02:03.805Z,28.00
2018-06-28T20:04:40.556Z,27.90
2018-06-28T20:07:12.190Z,27.80
2018-06-28T20:09:44.401Z,27.80
2018-06-28T20:12:21.979Z,27.70
2018-06-28T20:14:58.770Z,27.70
2018-06-28T20:17:36.576Z,27.60
2018-06-28T20:20:14.017Z,27.60
2018-06-28T20:22:45.868Z,27.50
2018-06-28T20:25:17.445Z,27.40
2018-06-28T20:27:54.396Z,27.40
2018-06-28T20:30:31.175Z,27.40
2018-06-28T20:33:07.882Z,27.30
2018-06-28T20:35:39.625Z,27.30
2018-06-28T20:38:12.390Z,27.20
2018-06-28T20:40:44.186Z,27.20
2018-06-28T20:43:16.011Z,27.10
2018-06-28T20:45:48.263Z,27.10
2018-06-28T20:48:20.134Z,27.00
2018-06-28T20:50:51.846Z,27.00
2018-06-28T20:53:23.646Z,26.90
2018-06-28T20:55:55.738Z,26.90
2018-06-28T20:58:27.270Z,26.80
2018-06-28T21:00:59.507Z,26.80
2018-06-28T21:03:31.047Z,26.70
2018-06-28T21:08:34.388Z,26.60
2018-06-28T21:13:38.242Z,26.60
2018-06-28T21:16:10.622Z,26.50
2018-06-28T21:18:42.514Z,26.50
2018-06-28T21:21:14.295Z,26.40
2018-06-28T21:23:45.996Z,26.40
2018-06-28T21:26:17.533Z,26.40
2018-06-28T21:28:49.205Z,26.30
2018-06-28T21:31:21.277Z,26.30
2018-06-28T21:33:52.776Z,26.30
2018-06-28T21:36:24.333Z,25.80
2018-06-28T21:38:56.034Z,26.10
2018-06-28T21:43:58.582Z,26.00
2018-06-28T21:46:30.377Z,26.00
2018-06-28T21:49:02.050Z,25.90
2018-06-28T21:51:33.700Z,25.90
2018-06-28T21:54:05.772Z,25.80
2018-06-28T21:56:37.462Z,25.80
2018-06-28T21:59:09.029Z,25.80
2018-06-28T22:01:52.198Z,25.70
2018-06-28T22:04:24.322Z,25.70
2018-06-28T22:06:56.427Z,25.70
2018-06-28T22:09:28.208Z,25.60
2018-06-28T22:12:00.225Z,25.60
2018-06-28T22:14:32.088Z,25.60
2018-06-28T22:17:04.259Z,25.50
2018-06-28T22:22:06.853Z,25.50
2018-06-28T22:24:38.470Z,25.40
2018-06-28T22:27:10.558Z,25.40
2018-06-28T22:29:48.757Z,25.30
2018-06-28T22:32:20.631Z,25.30
2018-06-28T22:39:54.374Z,25.20
2018-06-28T22:42:26.375Z,25.20
2018-06-28T22:44:59.341Z,25.10
2018-06-28T22:47:30.885Z,25.10
2018-06-28T22:50:03.259Z,25.10
2018-06-28T22:52:35.179Z,25.00
2018-06-28T22:55:06.717Z,25.00
2018-06-28T22:57:38.476Z,25.00
2018-06-28T23:00:11.649Z,24.90
2018-06-28T23:02:43.259Z,24.80
2018-06-28T23:05:15.023Z,24.80
2018-06-28T23:07:46.742Z,24.80
2018-06-28T23:10:18.566Z,24.70
2018-06-28T23:15:21.561Z,24.70
2018-06-28T23:17:53.297Z,24.70
2018-06-28T23:20:25.059Z,24.60
2018-06-28T23:25:27.929Z,24.50
2018-06-28T23:27:59.773Z,24.50
2018-06-28T23:30:31.509Z,24.50
2018-06-28T23:33:03.146Z,24.40
2018-06-28T23:35:35.182Z,24.40
2018-06-28T23:38:06.839Z,24.40
2018-06-28T23:40:38.442Z,24.30
2018-06-28T23:43:10.359Z,24.30
2018-06-28T23:45:42.386Z,24.30
2018-06-28T23:48:14.015Z,24.20
2018-06-28T23:50:45.557Z,24.20
2018-06-28T23:53:17.118Z,24.20
2018-06-28T23:55:48.775Z,24.20
2018-06-28T23:58:20.312Z,24.10
